WetterOnline ( https://www.wetteronline.de )

Wetter aktuell Regen

Aktuelles Wetter: Zwiesel (613m)

6-stündlich | Neueste Meldungen
Ortszeit Temperatur Wetter
Mi, 21.04. 2:00 3.5° C Nebel
Di, 20.04. 20:00 8.2° C bedeckt
Di, 20.04. 14:00 7.7° C wolkig
Di, 20.04. 8:00 4.8° C bewölkt
Di, 20.04. 2:00 4.4° C bewölkt
Mo, 19.04. 20:00 6.5° C Sprühregen
Mo, 19.04. 14:00 8.0° C bedeckt
Mo, 19.04. 8:00 2.7° C Sprühregen
Ortszeit Temperatur Wetter
Mi, 21.04. 5:00 1.0° C Nebel
Mi, 21.04. 4:50 1.0° C Nebel
Mi, 21.04. 4:40 1.1° C Nebel
Mi, 21.04. 4:30 1.5° C leicht bewölkt
Mi, 21.04. 4:20 1.5° C leicht bewölkt
Mi, 21.04. 4:10 1.6° C Nebel
Mi, 21.04. 4:00 2.1° C leicht bewölkt
Mi, 21.04. 3:30 2.3° C Nebel
Mi, 21.04. 3:00 2.7° C leicht bewölkt
Mi, 21.04. 2:30 2.8° C Nebel
Mi, 21.04. 2:00 3.5° C Nebel
Ortszeit Relative Feuchte Sichtweite
Mi, 21.04. 2:00 97% 100 m
Di, 20.04. 20:00 86% 28 km
Di, 20.04. 14:00 82% 25 km
Di, 20.04. 8:00 93% 13 km
Di, 20.04. 2:00 96% 6 km
Mo, 19.04. 20:00 79% 21 km
Mo, 19.04. 14:00 64% 50 km
Mo, 19.04. 8:00 92% 11 km
Ortszeit Relative Feuchte Sichtweite
Mi, 21.04. 5:00 99% 0.2 km
Mi, 21.04. 4:50 99% -
Mi, 21.04. 4:40 99% -
Mi, 21.04. 4:30 97% 3.6 km
Mi, 21.04. 4:20 97% -
Mi, 21.04. 4:10 97% -
Mi, 21.04. 4:00 97% 15 km
Mi, 21.04. 3:30 98% 0.2 km
Mi, 21.04. 3:00 99% 2.6 km
Mi, 21.04. 2:30 97% 100 m
Mi, 21.04. 2:00 97% 100 m
Ortszeit Niederschlagsmenge Niederschlagsart
Mi, 21.04. 2:00 0.7 l/m2 in 6 Std. Regen
Di, 20.04. 20:00 9 l/m2 in 12 Std. Regen
Di, 20.04. 14:00 8 l/m2 in 6 Std. Regen
Di, 20.04. 8:00 0.8 l/m2 in 12 Std. Regen
Di, 20.04. 2:00 0.6 l/m2 in 6 Std. Regen
Mo, 19.04. 20:00 2 l/m2 in 12 Std. Regen
Mo, 19.04. 14:00 2 l/m2 in 6 Std. Regen
Mo, 19.04. 8:00 0.1 l/m2 in 12 Std. Regen
Ortszeit Niederschlagsmenge Niederschlagsart
Mi, 21.04. 5:00 0.0 l/m2 in 1 Std. -
Mi, 21.04. 4:50 keine Meldung -
Mi, 21.04. 4:40 keine Meldung -
Mi, 21.04. 4:30 0.0 l/m2 in 1 Std. -
Mi, 21.04. 4:20 keine Meldung -
Mi, 21.04. 4:10 keine Meldung -
Mi, 21.04. 4:00 0.0 l/m2 in 1 Std. -
Mi, 21.04. 3:30 0.0 l/m2 in 1 Std. -
Mi, 21.04. 3:00 0.0 l/m2 in 1 Std. -
Mi, 21.04. 2:30 0.0 l/m2 in 1 Std. -
Mi, 21.04. 2:00 0.0 l/m2 in 1 Std. Regen
Ortszeit Stärke Spitze Richtung
km/h Bft. km/h Grad Sektor
Mi, 21.04. 2:00 2 1 9 360° N
Di, 20.04. 20:00 0 0 25 - -
Di, 20.04. 14:00 2 1 19 300° NW
Di, 20.04. 8:00 4 1 7 140° SO
Di, 20.04. 2:00 0 0 14 - -
Mo, 19.04. 20:00 7 2 30 10° N
Mo, 19.04. 14:00 7 2 25 350° N
Mo, 19.04. 8:00 0 0 7 - -
Ortszeit Stärke Spitze Richtung
km/h Bft. km/h Grad Sektor
Mi, 21.04. 5:00 2 1 11 80° O
Mi, 21.04. 4:50 2 1 - 80° O
Mi, 21.04. 4:40 4 1 - 120° SO
Mi, 21.04. 4:30 0 0 11 - -
Mi, 21.04. 4:20 2 1 - 90° O
Mi, 21.04. 4:10 2 1 - 290° W
Mi, 21.04. 4:00 7 2 14 40° NO
Mi, 21.04. 3:30 4 1 7 360° N
Mi, 21.04. 3:00 4 1 7 100° O
Mi, 21.04. 2:30 4 1 7 10° N
Mi, 21.04. 2:00 2 1 6 360° N
Ortszeit Untergrenze Bedeckung Gattung
total tief tief mittel hoch
Mi, 21.04. 2:00 60 m 6/8 6/8 - - -
Di, 20.04. 20:00 1080 m 8/8 8/8 - - -
Di, 20.04. 14:00 1800 m 5/8 5/8 - - -
Di, 20.04. 8:00 1800 m 7/8 7/8 - - -
Di, 20.04. 2:00 30 m 7/8 7/8 - - -
Mo, 19.04. 20:00 3000 m 0/8 0/8 - - -
Mo, 19.04. 14:00 810 m 8/8 8/8 - - -
Mo, 19.04. 8:00 60 m 3/8 3/8 - - -
Ortszeit Bedeckungsgrad in Achtel und Wolkenuntergrenze
Mi, 21.04. 5:00 7(<30m)
Mi, 21.04. 4:50 7(<30m)
Mi, 21.04. 4:40 7(<30m)
Mi, 21.04. 4:30 3(30m)
Mi, 21.04. 4:20 3(30m)
Mi, 21.04. 4:10 1(<30m)
Mi, 21.04. 4:00 3(<30m)
Mi, 21.04. 3:30 8(30m)
Mi, 21.04. 3:00 4(60m)
Mi, 21.04. 2:30 3(<30m)
Mi, 21.04. 2:00 3(60m) 6(2700m)
Ortszeit Luftdruck NN (hPa) Tendenz (hPa in 3 Std.)
Mi, 21.04. 2:00 1018 0,0
Di, 20.04. 20:00 1016 + 0,4
Di, 20.04. 14:00 1017 - 0,1
Di, 20.04. 8:00 1018 + 0,1
Di, 20.04. 2:00 1018 - 0,6
Mo, 19.04. 20:00 1018 + 0,4
Mo, 19.04. 14:00 1018 - 0,8
Mo, 19.04. 8:00 1020 0,0
Ortszeit Luftdruck NN (hPa) Tendenz (hPa in 3 Std.)
Mi, 21.04. 5:00 1018 - 0,3
Mi, 21.04. 4:50 1018 keine Meldung
Mi, 21.04. 4:40 1018 keine Meldung
Mi, 21.04. 4:30 1018 - 0,3
Mi, 21.04. 4:20 1018 keine Meldung
Mi, 21.04. 4:10 1018 keine Meldung
Mi, 21.04. 4:00 1018 - 0,2
Mi, 21.04. 3:30 1018 - 0,3
Mi, 21.04. 3:00 1018 - 0,2
Mi, 21.04. 2:30 1018 0,0
Mi, 21.04. 2:00 1018 0,0
Ortszeit Schneehöhe (cm)
Mi, 21.04. 2:00 0
Di, 20.04. 20:00 0
Di, 20.04. 14:00 0
Di, 20.04. 8:00 0
Di, 20.04. 2:00 0
Mo, 19.04. 20:00 0
Mo, 19.04. 14:00 0
Mo, 19.04. 8:00 0
Ortszeit Schneehöhe (cm)
Mi, 21.04. 5:00 0
Mi, 21.04. 4:50 0
Mi, 21.04. 4:40 0
Mi, 21.04. 4:30 0
Mi, 21.04. 4:20 0
Mi, 21.04. 4:10 0
Mi, 21.04. 4:00 0
Mi, 21.04. 3:30 0
Mi, 21.04. 3:00 0
Mi, 21.04. 2:30 0
Mi, 21.04. 2:00 0
Link zu dieser Seite / Seite empfehlen

Das Wetter in ...